createdAt,value
2018-12-15T00:02:10.060Z,45.13
2018-12-15T00:04:38.515Z,44.93
2018-12-15T00:07:06.923Z,42.97
2018-12-15T00:09:35.355Z,45.03
2018-12-15T00:12:03.811Z,44.97
2018-12-15T00:14:32.255Z,44.67
2018-12-15T00:17:05.721Z,43.33
2018-12-15T00:19:31.361Z,44.87
2018-12-15T00:21:59.936Z,45.03
2018-12-15T00:24:28.395Z,46.00
2018-12-15T00:26:56.853Z,43.80
2018-12-15T00:29:25.271Z,44.23
2018-12-15T00:31:53.739Z,42.90
2018-12-15T00:34:22.182Z,45.07
2018-12-15T00:36:50.643Z,44.67
2018-12-15T00:39:19.041Z,43.03
2018-12-15T00:41:47.494Z,43.87
2018-12-15T00:44:15.902Z,41.47
2018-12-15T00:46:44.379Z,40.57
2018-12-15T00:49:12.910Z,42.33
2018-12-15T00:51:41.323Z,40.30
2018-12-15T00:54:11.799Z,41.27
2018-12-15T00:56:40.548Z,37.47
2018-12-15T00:59:08.972Z,34.97
2018-12-15T01:01:37.447Z,37.67
2018-12-15T01:04:05.872Z,34.90
2018-12-15T01:06:34.367Z,32.87
2018-12-15T01:09:04.296Z,33.17
2018-12-15T01:11:32.879Z,34.10
2018-12-15T01:14:01.295Z,34.97
2018-12-15T01:16:29.919Z,35.80
2018-12-15T01:18:58.347Z,35.63
2018-12-15T01:21:26.795Z,36.40
2018-12-15T01:23:55.211Z,35.17
2018-12-15T01:26:23.680Z,35.60
2018-12-15T01:28:52.144Z,36.70
2018-12-15T01:31:20.562Z,36.27
2018-12-15T01:33:49.018Z,36.80
2018-12-15T01:36:17.447Z,36.27
2018-12-15T01:38:45.907Z,35.77
2018-12-15T01:41:14.332Z,32.60
2018-12-15T01:43:42.816Z,34.33
2018-12-15T01:46:11.243Z,34.17
2018-12-15T01:48:39.699Z,33.90
2018-12-15T01:51:08.126Z,32.67
2018-12-15T01:53:36.628Z,31.93
2018-12-15T01:56:05.127Z,33.07
2018-12-15T01:58:33.609Z,33.27
2018-12-15T02:01:02.018Z,32.27
2018-12-15T02:03:30.471Z,32.53
2018-12-15T02:05:58.923Z,32.57
2018-12-15T02:08:27.382Z,32.70
2018-12-15T02:10:55.843Z,31.53
2018-12-15T02:13:24.282Z,30.67
2018-12-15T02:15:52.743Z,30.20
2018-12-15T02:18:21.151Z,30.10
2018-12-15T02:20:49.578Z,30.50
2018-12-15T02:23:18.027Z,31.10
2018-12-15T02:25:46.451Z,29.67
2018-12-15T02:28:14.963Z,31.20
2018-12-15T02:30:43.392Z,29.50
2018-12-15T02:33:11.821Z,30.90
2018-12-15T02:35:40.363Z,29.73
2018-12-15T02:38:09.004Z,29.63
2018-12-15T02:40:37.444Z,29.10
2018-12-15T02:43:05.936Z,29.43
2018-12-15T02:45:34.638Z,28.50
2018-12-15T02:48:03.090Z,27.40
2018-12-15T02:50:31.539Z,27.77
2018-12-15T02:52:59.970Z,29.73
2018-12-15T02:55:28.419Z,29.97
2018-12-15T02:57:56.851Z,29.63
2018-12-15T03:00:25.317Z,31.20
2018-12-15T03:02:53.766Z,29.73
2018-12-15T03:05:22.207Z,30.30
2018-12-15T03:07:50.683Z,30.83
2018-12-15T03:10:19.270Z,29.63
2018-12-15T03:12:47.692Z,29.77
2018-12-15T03:15:16.123Z,30.73
2018-12-15T03:17:48.924Z,30.67
2018-12-15T03:20:15.091Z,27.73
2018-12-15T03:22:43.512Z,29.00
2018-12-15T03:25:11.935Z,29.47
2018-12-15T03:27:40.387Z,29.47
2018-12-15T03:30:09.075Z,27.97
2018-12-15T03:32:37.560Z,27.90
2018-12-15T03:35:06.019Z,29.00
2018-12-15T03:37:34.419Z,29.60
2018-12-15T03:40:03.035Z,29.13
2018-12-15T03:42:31.688Z,29.83
2018-12-15T03:45:00.203Z,28.33
2018-12-15T03:47:28.635Z,27.93
2018-12-15T03:49:57.163Z,27.87
2018-12-15T03:52:25.627Z,29.03
2018-12-15T03:54:54.055Z,28.13
2018-12-15T03:57:22.504Z,28.87
2018-12-15T03:59:51.062Z,28.43
2018-12-15T04:02:20.286Z,28.53
2018-12-15T04:04:49.556Z,28.10
2018-12-15T04:07:18.037Z,28.37
2018-12-15T04:09:46.504Z,30.73
2018-12-15T04:12:14.960Z,31.00
2018-12-15T04:14:43.420Z,29.10
2018-12-15T04:17:11.897Z,28.17
2018-12-15T04:19:40.317Z,28.87
2018-12-15T04:22:19.733Z,30.30
2018-12-15T04:24:48.291Z,29.60
2018-12-15T04:27:16.873Z,29.33
2018-12-15T04:29:45.278Z,28.93
2018-12-15T04:32:13.695Z,28.43
2018-12-15T04:34:42.167Z,30.23
2018-12-15T04:37:10.603Z,28.67
2018-12-15T04:39:39.074Z,25.97
2018-12-15T04:42:07.623Z,29.43
2018-12-15T04:44:36.040Z,28.70
2018-12-15T04:47:05.331Z,27.70
2018-12-15T04:49:33.841Z,28.57
2018-12-15T04:52:02.307Z,28.50
2018-12-15T04:54:30.751Z,28.17
2018-12-15T04:56:59.159Z,28.17
2018-12-15T04:59:27.607Z,29.27
2018-12-15T05:01:56.016Z,28.63
2018-12-15T05:04:24.467Z,27.57
2018-12-15T05:06:52.967Z,28.67
2018-12-15T05:09:21.543Z,28.83
2018-12-15T05:11:49.972Z,28.07
2018-12-15T05:14:18.427Z,28.70
2018-12-15T05:16:46.979Z,28.60
2018-12-15T05:19:15.431Z,28.07
2018-12-15T05:21:43.887Z,27.67
2018-12-15T05:24:12.355Z,28.17
2018-12-15T05:26:40.913Z,29.73
2018-12-15T05:29:09.361Z,28.73
2018-12-15T05:31:37.974Z,26.87
2018-12-15T05:34:06.384Z,27.43
2018-12-15T05:36:34.835Z,27.43
2018-12-15T05:39:04.139Z,28.20
2018-12-15T05:41:32.571Z,26.07
2018-12-15T05:44:00.983Z,26.50
2018-12-15T05:46:29.509Z,26.07
2018-12-15T05:48:57.915Z,26.13
2018-12-15T05:51:26.382Z,26.33
2018-12-15T05:53:54.799Z,26.70
2018-12-15T05:56:23.240Z,25.87
2018-12-15T05:58:51.715Z,25.70
2018-12-15T06:01:20.135Z,25.33
2018-12-15T06:03:48.600Z,24.80
2018-12-15T06:06:17.559Z,24.97
2018-12-15T06:08:46.071Z,25.73
2018-12-15T06:11:14.496Z,24.03
2018-12-15T06:13:42.932Z,24.30
2018-12-15T06:16:11.398Z,24.73
2018-12-15T06:18:39.807Z,25.60
2018-12-15T06:21:08.251Z,24.27
2018-12-15T06:23:36.723Z,26.53
2018-12-15T06:26:05.214Z,23.53
2018-12-15T06:28:33.647Z,24.80
2018-12-15T06:31:02.160Z,24.80
2018-12-15T06:33:30.616Z,25.43
2018-12-15T06:35:59.095Z,24.23
2018-12-15T06:38:27.515Z,23.40
2018-12-15T06:40:55.935Z,23.27
2018-12-15T06:43:24.718Z,23.07
2018-12-15T06:45:53.862Z,23.93
2018-12-15T06:48:22.282Z,22.87
2018-12-15T06:50:50.730Z,23.43
2018-12-15T06:53:19.137Z,22.90
2018-12-15T06:55:47.559Z,23.47
2018-12-15T06:58:15.984Z,24.23
2018-12-15T07:00:44.484Z,25.00
2018-12-15T07:03:13.040Z,23.37
2018-12-15T07:05:41.498Z,22.77
2018-12-15T07:08:09.942Z,23.50
2018-12-15T07:10:38.447Z,23.67
2018-12-15T07:13:06.908Z,23.80
2018-12-15T07:15:35.375Z,23.87
2018-12-15T07:18:03.843Z,24.63
2018-12-15T07:20:32.303Z,24.73
2018-12-15T07:23:00.883Z,23.70
2018-12-15T07:25:29.332Z,25.80
2018-12-15T07:27:57.739Z,28.87
2018-12-15T07:30:26.534Z,24.37
2018-12-15T07:32:54.974Z,25.03
2018-12-15T07:35:23.422Z,24.17
2018-12-15T07:37:51.891Z,27.43
2018-12-15T07:40:20.326Z,24.27
2018-12-15T07:42:48.775Z,24.07
2018-12-15T07:45:17.260Z,23.83
2018-12-15T07:50:20.363Z,21.40
2018-12-15T07:52:48.820Z,22.67
2018-12-15T07:55:17.317Z,22.50
2018-12-15T07:57:45.795Z,23.47
2018-12-15T08:00:14.347Z,22.00
2018-12-15T08:02:42.802Z,21.37
2018-12-15T08:05:11.260Z,23.17
2018-12-15T08:07:39.693Z,23.13
2018-12-15T08:10:08.161Z,21.50
2018-12-15T08:12:42.075Z,21.70
2018-12-15T08:15:10.962Z,23.30
2018-12-15T08:17:39.411Z,24.07
2018-12-15T08:20:11.520Z,21.63
2018-12-15T08:22:39.983Z,24.03
2018-12-15T08:25:08.554Z,23.17
2018-12-15T08:27:37.055Z,24.37
2018-12-15T08:30:08.305Z,22.97
2018-12-15T08:32:36.760Z,23.83
2018-12-15T08:35:05.871Z,23.90
2018-12-15T08:37:34.346Z,23.10
2018-12-15T08:40:02.822Z,23.50
2018-12-15T08:42:31.298Z,22.43
2018-12-15T08:44:59.723Z,23.20
2018-12-15T08:47:28.196Z,22.53
2018-12-15T08:49:56.606Z,22.30
2018-12-15T08:52:25.025Z,22.23
2018-12-15T08:54:53.555Z,20.73
2018-12-15T08:57:25.869Z,21.33
2018-12-15T08:59:54.768Z,22.37
2018-12-15T09:02:23.312Z,22.27
2018-12-15T09:04:51.791Z,21.93
2018-12-15T09:07:20.211Z,21.43
2018-12-15T09:09:48.623Z,20.77
2018-12-15T09:12:17.099Z,19.67
2018-12-15T09:14:45.539Z,20.57
2018-12-15T09:17:13.955Z,21.73
2018-12-15T09:19:42.399Z,20.10
2018-12-15T09:22:11.526Z,20.23
2018-12-15T09:24:40.737Z,20.17
2018-12-15T09:27:09.141Z,19.50
2018-12-15T09:29:37.615Z,20.63
2018-12-15T09:32:06.203Z,19.43
2018-12-15T09:34:34.607Z,18.70
2018-12-15T09:37:03.066Z,19.17
2018-12-15T09:39:32.535Z,19.43
2018-12-15T09:42:01.115Z,19.30
2018-12-15T09:44:29.519Z,20.67
2018-12-15T09:46:57.980Z,20.17
2018-12-15T09:49:26.398Z,20.27
2018-12-15T09:51:54.839Z,17.73
2018-12-15T09:54:23.260Z,18.53
2018-12-15T09:56:51.715Z,18.47
2018-12-15T09:59:20.186Z,19.47
2018-12-15T10:01:48.651Z,19.77
2018-12-15T10:04:17.055Z,17.67
2018-12-15T10:06:45.560Z,18.90
2018-12-15T10:09:13.972Z,18.97
2018-12-15T10:11:42.407Z,20.30
2018-12-15T10:14:11.109Z,19.33
2018-12-15T10:16:39.526Z,18.27
2018-12-15T10:19:07.976Z,18.80
2018-12-15T10:21:36.423Z,19.00
2018-12-15T10:24:04.880Z,18.47
2018-12-15T10:26:33.470Z,18.93
2018-12-15T10:29:01.878Z,19.33
2018-12-15T10:31:36.596Z,20.00
2018-12-15T10:34:05.071Z,18.40
2018-12-15T10:36:33.586Z,17.70
2018-12-15T10:39:02.061Z,19.27
2018-12-15T10:41:30.514Z,18.00
2018-12-15T10:43:59.031Z,18.13
2018-12-15T10:46:27.471Z,19.07
2018-12-15T10:48:55.884Z,18.53
2018-12-15T10:51:24.361Z,17.60
2018-12-15T10:53:52.804Z,19.00
2018-12-15T10:56:21.240Z,18.60
2018-12-15T10:58:49.707Z,18.93
2018-12-15T11:01:22.650Z,18.33
2018-12-15T11:03:51.459Z,18.43
2018-12-15T11:06:19.935Z,19.43
2018-12-15T11:08:48.375Z,18.83
2018-12-15T11:11:16.824Z,19.47
2018-12-15T11:13:45.248Z,18.13
2018-12-15T11:16:14.751Z,19.23
2018-12-15T11:18:43.227Z,18.17
2018-12-15T11:21:11.638Z,18.40
2018-12-15T11:23:40.215Z,19.47
2018-12-15T11:26:09.254Z,20.73
2018-12-15T11:28:37.679Z,18.53
2018-12-15T11:31:06.132Z,18.87
2018-12-15T11:33:34.643Z,18.90
2018-12-15T11:36:03.247Z,20.30
2018-12-15T11:38:31.684Z,20.63
2018-12-15T11:41:00.192Z,19.37
2018-12-15T11:43:28.652Z,20.27
2018-12-15T11:45:57.087Z,19.97
2018-12-15T11:48:25.808Z,20.90
2018-12-15T11:50:54.255Z,21.10
2018-12-15T11:53:22.701Z,21.10
2018-12-15T11:55:51.114Z,20.67
2018-12-15T11:58:19.563Z,20.00
2018-12-15T12:00:48.851Z,21.17
2018-12-15T12:03:17.292Z,20.70
2018-12-15T12:05:45.747Z,20.20
2018-12-15T12:08:14.203Z,19.83
2018-12-15T12:10:42.679Z,20.77
2018-12-15T12:13:11.152Z,22.03
2018-12-15T12:15:39.555Z,21.43
2018-12-15T12:18:08.057Z,21.37
2018-12-15T12:20:36.558Z,21.50
2018-12-15T12:23:04.998Z,21.57
2018-12-15T12:25:33.410Z,20.03
2018-12-15T12:28:02.028Z,20.33
2018-12-15T12:30:30.444Z,21.57
2018-12-15T12:32:59.452Z,18.67
2018-12-15T12:35:28.552Z,19.43
2018-12-15T12:37:57.025Z,18.97
2018-12-15T12:40:25.512Z,19.90
2018-12-15T12:42:53.987Z,21.03
2018-12-15T12:45:23.706Z,20.43
2018-12-15T12:47:52.804Z,21.03
2018-12-15T12:50:21.215Z,19.43
2018-12-15T12:52:49.696Z,18.97
2018-12-15T12:55:18.131Z,20.20
2018-12-15T12:57:46.600Z,19.80
2018-12-15T13:00:15.094Z,19.60
2018-12-15T13:02:43.539Z,19.20
2018-12-15T13:05:11.956Z,20.20
2018-12-15T13:07:41.122Z,19.40
2018-12-15T13:10:11.169Z,19.17
2018-12-15T13:12:39.631Z,19.63
2018-12-15T13:15:08.215Z,19.10
2018-12-15T13:17:36.703Z,21.07
2018-12-15T13:20:05.706Z,19.93
2018-12-15T13:22:34.139Z,20.33
2018-12-15T13:25:02.606Z,21.33
2018-12-15T13:27:31.179Z,20.23
2018-12-15T13:29:59.591Z,19.17
2018-12-15T13:32:28.165Z,19.43
2018-12-15T13:34:56.699Z,19.07
2018-12-15T13:37:25.140Z,19.53
2018-12-15T13:39:53.603Z,20.70
2018-12-15T13:42:22.031Z,19.63
2018-12-15T13:44:50.479Z,19.03
2018-12-15T13:47:18.923Z,19.43
2018-12-15T13:49:47.355Z,18.90
2018-12-15T13:52:15.946Z,20.40
2018-12-15T13:54:44.354Z,18.73
2018-12-15T13:57:12.815Z,19.07
2018-12-15T13:59:41.229Z,18.47
2018-12-15T14:02:09.698Z,20.00
2018-12-15T14:04:38.135Z,20.30
2018-12-15T14:07:06.623Z,19.37
2018-12-15T14:09:35.039Z,20.70
2018-12-15T14:12:03.487Z,19.13
2018-12-15T14:14:31.916Z,20.77
2018-12-15T14:17:00.361Z,20.70
2018-12-15T14:19:28.946Z,19.77
2018-12-15T14:21:57.362Z,19.53
2018-12-15T14:24:26.949Z,21.03
2018-12-15T14:26:55.377Z,20.03
2018-12-15T14:29:24.009Z,20.67
2018-12-15T14:31:52.434Z,20.20
2018-12-15T14:34:20.920Z,21.13
2018-12-15T14:36:49.343Z,21.93
2018-12-15T14:39:17.751Z,19.80
2018-12-15T14:41:46.206Z,21.27
2018-12-15T14:44:14.791Z,20.93
2018-12-15T14:46:43.250Z,21.07
2018-12-15T14:49:11.670Z,21.30
2018-12-15T14:51:40.123Z,19.77
2018-12-15T14:54:08.565Z,20.07
2018-12-15T14:56:37.015Z,21.70
2018-12-15T14:59:05.488Z,20.93
2018-12-15T15:01:33.911Z,23.70
2018-12-15T15:04:02.339Z,21.20
2018-12-15T15:06:30.887Z,19.97
2018-12-15T15:11:41.322Z,21.40
2018-12-15T15:14:10.459Z,21.47
2018-12-15T15:16:38.960Z,21.87
2018-12-15T15:19:07.383Z,21.10
2018-12-15T15:21:35.811Z,22.60
2018-12-15T15:24:04.395Z,21.60
2018-12-15T15:26:32.952Z,22.00
2018-12-15T15:29:01.527Z,22.63
2018-12-15T15:31:30.047Z,22.40
2018-12-15T15:33:58.492Z,22.93
2018-12-15T15:36:27.028Z,21.87
2018-12-15T15:38:55.504Z,22.00
2018-12-15T15:41:24.065Z,23.23
2018-12-15T15:43:52.539Z,21.67
2018-12-15T15:46:20.944Z,21.73
2018-12-15T15:48:49.384Z,21.63
2018-12-15T15:51:17.947Z,22.47
2018-12-15T15:53:46.424Z,21.70
2018-12-15T15:56:14.860Z,21.73
2018-12-15T15:58:43.336Z,20.50
2018-12-15T16:01:11.816Z,20.57
2018-12-15T16:03:40.264Z,20.93
2018-12-15T16:06:08.680Z,23.67
2018-12-15T16:08:37.689Z,21.60
2018-12-15T16:11:06.152Z,22.63
2018-12-15T16:13:34.620Z,20.90
2018-12-15T16:16:03.035Z,20.63
2018-12-15T16:18:31.510Z,21.20
2018-12-15T16:21:00.063Z,20.80
2018-12-15T16:23:28.497Z,20.93
2018-12-15T16:25:56.963Z,20.23
2018-12-15T16:28:25.408Z,19.50
2018-12-15T16:30:53.907Z,21.23
2018-12-15T16:33:22.322Z,21.60
2018-12-15T16:35:50.779Z,21.57
2018-12-15T16:38:19.236Z,22.23
2018-12-15T16:40:47.659Z,20.53
2018-12-15T16:43:16.123Z,20.73
2018-12-15T16:45:44.584Z,21.47
2018-12-15T16:48:13.032Z,26.60
2018-12-15T16:50:41.444Z,25.27
2018-12-15T16:53:10.032Z,23.83
2018-12-15T16:55:38.479Z,26.33
2018-12-15T16:58:06.939Z,23.87
2018-12-15T17:00:35.846Z,25.17
2018-12-15T17:03:04.415Z,24.27
2018-12-15T17:05:32.878Z,24.10
2018-12-15T17:08:01.296Z,23.60
2018-12-15T17:10:29.727Z,22.83
2018-12-15T17:12:58.306Z,24.23
2018-12-15T17:15:27.285Z,23.77
2018-12-15T17:17:55.697Z,23.03
2018-12-15T17:20:24.171Z,24.60
2018-12-15T17:22:52.623Z,22.33
2018-12-15T17:25:21.063Z,25.57
2018-12-15T17:27:49.483Z,24.37
2018-12-15T17:30:17.991Z,24.27
2018-12-15T17:32:46.446Z,25.07
2018-12-15T17:35:14.900Z,24.37
2018-12-15T17:37:43.360Z,24.73
2018-12-15T17:40:12.171Z,24.63
2018-12-15T17:42:40.592Z,24.70
2018-12-15T17:45:09.300Z,24.47
2018-12-15T17:47:37.859Z,23.10
2018-12-15T17:50:08.171Z,23.83
2018-12-15T17:52:36.650Z,27.20
2018-12-15T17:55:06.304Z,26.37
2018-12-15T17:57:35.936Z,25.57
2018-12-15T18:00:07.538Z,23.83
2018-12-15T18:02:36.037Z,24.67
2018-12-15T18:05:05.105Z,24.83
2018-12-15T18:07:33.570Z,22.37
2018-12-15T18:10:02.115Z,23.73
2018-12-15T18:12:30.575Z,23.97
2018-12-15T18:14:59.017Z,22.87
2018-12-15T18:17:27.488Z,21.27
2018-12-15T18:19:55.895Z,20.70
2018-12-15T18:22:24.355Z,22.30
2018-12-15T18:24:52.873Z,20.47
2018-12-15T18:27:21.280Z,19.87
2018-12-15T18:29:49.751Z,20.43
2018-12-15T18:32:18.192Z,20.13
2018-12-15T18:34:46.612Z,21.07
2018-12-15T18:37:15.075Z,20.03
2018-12-15T18:39:43.564Z,20.17
2018-12-15T18:42:12.125Z,20.67
2018-12-15T18:44:40.553Z,20.40
2018-12-15T18:47:09.143Z,21.57
2018-12-15T18:49:37.583Z,19.47
2018-12-15T18:52:06.099Z,20.83
2018-12-15T18:54:34.568Z,21.57
2018-12-15T18:57:03.140Z,20.47
2018-12-15T18:59:31.827Z,20.93
2018-12-15T19:02:01.332Z,20.40
2018-12-15T19:04:29.755Z,21.20
2018-12-15T19:06:58.210Z,20.20
2018-12-15T19:09:26.623Z,20.97
2018-12-15T19:11:55.092Z,20.93
2018-12-15T19:14:23.620Z,20.97
2018-12-15T19:16:52.080Z,22.03
2018-12-15T19:19:20.539Z,19.10
2018-12-15T19:21:48.981Z,22.10
2018-12-15T19:24:18.494Z,21.73
2018-12-15T19:26:46.931Z,24.07
2018-12-15T19:29:15.400Z,23.80
2018-12-15T19:31:43.962Z,23.07
2018-12-15T19:34:17.547Z,21.93
2018-12-15T19:36:42.903Z,20.73
2018-12-15T19:39:11.493Z,21.10
2018-12-15T19:41:39.971Z,21.03
2018-12-15T19:44:08.399Z,21.30
2018-12-15T19:46:36.812Z,22.00
2018-12-15T19:49:05.395Z,22.17
2018-12-15T19:51:33.832Z,24.03
2018-12-15T19:54:02.299Z,23.50
2018-12-15T19:56:30.751Z,24.83
2018-12-15T19:58:59.165Z,23.77
2018-12-15T20:01:27.620Z,23.23
2018-12-15T20:03:56.131Z,23.23
2018-12-15T20:06:24.557Z,23.20
2018-12-15T20:08:52.995Z,23.47
2018-12-15T20:11:21.455Z,22.47
2018-12-15T20:13:49.906Z,24.67
2018-12-15T20:16:18.869Z,23.67
2018-12-15T20:18:47.311Z,20.53
2018-12-15T20:21:15.786Z,22.37
2018-12-15T20:23:44.267Z,22.43
2018-12-15T20:26:12.707Z,21.27
2018-12-15T20:28:41.239Z,20.93
2018-12-15T20:31:10.230Z,22.13
2018-12-15T20:33:38.671Z,21.30
2018-12-15T20:36:07.833Z,24.10
2018-12-15T20:38:36.772Z,23.53
2018-12-15T20:41:05.196Z,20.87
2018-12-15T20:43:33.679Z,19.30
2018-12-15T20:46:02.223Z,20.63
2018-12-15T20:48:30.676Z,18.13
2018-12-15T20:50:59.236Z,20.23
2018-12-15T20:53:28.127Z,19.67
2018-12-15T20:55:56.555Z,20.77
2018-12-15T20:58:25.189Z,20.37
2018-12-15T21:00:53.654Z,21.63
2018-12-15T21:03:22.106Z,22.27
2018-12-15T21:05:50.636Z,21.60
2018-12-15T21:08:19.100Z,20.63
2018-12-15T21:10:47.554Z,20.60
2018-12-15T21:13:15.977Z,20.50
2018-12-15T21:15:46.654Z,20.83
2018-12-15T21:18:15.088Z,20.20
2018-12-15T21:20:43.624Z,20.30
2018-12-15T21:23:12.049Z,20.40
2018-12-15T21:25:40.514Z,19.77
2018-12-15T21:28:08.950Z,19.57
2018-12-15T21:30:37.479Z,19.90
2018-12-15T21:33:06.036Z,18.67
2018-12-15T21:35:34.461Z,19.17
2018-12-15T21:38:02.930Z,18.87
2018-12-15T21:40:31.559Z,19.83
2018-12-15T21:42:59.971Z,18.93
2018-12-15T21:45:28.435Z,18.70
2018-12-15T21:47:57.853Z,18.43
2018-12-15T21:50:27.039Z,17.80
2018-12-15T21:52:55.467Z,19.73
2018-12-15T21:55:24.068Z,19.23
2018-12-15T21:57:52.499Z,19.77
2018-12-15T22:00:20.997Z,18.70
2018-12-15T22:02:49.647Z,19.03
2018-12-15T22:05:18.118Z,17.57
2018-12-15T22:07:46.718Z,19.47
2018-12-15T22:10:15.156Z,18.43
2018-12-15T22:12:43.707Z,17.57
2018-12-15T22:15:13.176Z,18.87
2018-12-15T22:17:41.647Z,19.57
2018-12-15T22:20:10.779Z,18.77
2018-12-15T22:22:39.349Z,18.47
2018-12-15T22:25:08.531Z,19.63
2018-12-15T22:27:36.949Z,19.43
2018-12-15T22:30:06.598Z,20.63
2018-12-15T22:32:35.053Z,20.20
2018-12-15T22:35:04.027Z,18.50
2018-12-15T22:37:32.442Z,20.70
2018-12-15T22:40:00.923Z,19.97
2018-12-15T22:42:29.355Z,20.17
2018-12-15T22:44:57.804Z,19.50
2018-12-15T22:47:26.259Z,21.27
2018-12-15T22:49:54.787Z,19.87
2018-12-15T22:52:23.244Z,19.33
2018-12-15T22:54:51.731Z,20.77
2018-12-15T22:57:20.185Z,19.97
2018-12-15T22:59:48.622Z,19.60
2018-12-15T23:02:17.159Z,19.43
2018-12-15T23:04:45.613Z,19.93
2018-12-15T23:07:14.066Z,20.10
2018-12-15T23:09:42.513Z,19.47
2018-12-15T23:12:10.968Z,19.33
2018-12-15T23:14:39.453Z,19.63
2018-12-15T23:17:08.731Z,19.43
2018-12-15T23:19:37.160Z,19.40
2018-12-15T23:22:05.608Z,20.37
2018-12-15T23:24:34.037Z,21.53
2018-12-15T23:27:02.507Z,22.23
2018-12-15T23:29:30.923Z,24.27
2018-12-15T23:31:59.415Z,25.57
2018-12-15T23:34:27.863Z,20.13
2018-12-15T23:36:56.336Z,20.20
2018-12-15T23:39:24.765Z,20.70
2018-12-15T23:41:53.210Z,23.13
2018-12-15T23:44:21.663Z,21.90
2018-12-15T23:46:50.183Z,22.53
2018-12-15T23:49:18.748Z,20.77
2018-12-15T23:51:47.169Z,20.40
2018-12-15T23:54:15.671Z,17.70
2018-12-15T23:56:44.080Z,17.90
2018-12-15T23:59:12.546Z,18.80
